This is the latest recevied weather packets stored in our database for station/object K2ATL. If no packets are shown the sender has not sent any weather packets the latest 10 day(s).
| Time | Temp. | Humidity | Pressure | Rain* | Wind** | Luminosity | Snow |
|---|---|---|---|---|---|---|---|
| 1787456155 | 24.44° C | 74% | 1102.7 hPa | 0 mm | - | 0 W/m² | - |
| 1787455852 | 24.44° C | 74% | 1102.7 hPa | 0 mm | - | 0 W/m² | - |
| 1787455551 | 24.44° C | 74% | 1102.5 hPa | 0 mm | - | 0 W/m² | - |
| 1787455246 | 23.89° C | 76% | 1102.6 hPa | 0 mm | - | 0 W/m² | - |
| 1787454942 | 22.78° C | 81% | 1102.4 hPa | 0 mm | - | 0 W/m² | - |
| 1787454638 | 22.78° C | 83% | 1102.4 hPa | 0 mm | - | 0 W/m² | - |
| 1787454333 | 22.78° C | 84% | 1102.4 hPa | 0 mm | - | 0 W/m² | - |
| 1787454033 | 22.78° C | 85% | 1102.5 hPa | 0 mm | - | 0 W/m² | - |
| 1787453729 | 22.78° C | 85% | 1102.3 hPa | 0 mm | - | 0 W/m² | - |
| 1787453425 | 23.33° C | 83% | 1102.4 hPa | 0 mm | - | 0 W/m² | - |
| 1787453124 | 24.44° C | 78% | 1102.2 hPa | 0 mm | - | 0 W/m² | - |
| 1787452819 | 24.44° C | 76% | 1102.2 hPa | 0 mm | - | 0 W/m² | - |
| 1787452518 | 23.89° C | 76% | 1102.2 hPa | 0 mm | - | 0 W/m² | - |
| 1787452214 | 23.89° C | 81% | 1102.1 hPa | 0 mm | - | 0 W/m² | - |
| 1787451910 | 25° C | 75% | 1102.2 hPa | 0 mm | - | 0 W/m² | - |
| 1787451609 | 24.44° C | 74% | 1102 hPa | 0 mm | - | 0 W/m² | - |
| 1787451308 | 25° C | 73% | 1101.8 hPa | 0 mm | - | 0 W/m² | - |
| 1787451004 | 24.44° C | 74% | 1101.8 hPa | 0 mm | - | 0 W/m² | - |
| 1787450700 | 24.44° C | 76% | 1101.9 hPa | 0 mm | - | 0 W/m² | - |
| 1787450394 | 25° C | 75% | 1101.9 hPa | 0 mm | - | 0 W/m² | - |
| 1787450090 | 25° C | 74% | 1102 hPa | 0 mm | - | 0 W/m² | - |
| 1787449786 | 25° C | 75% | 1102.1 hPa | 0 mm | - | 0 W/m² | - |
| 1787449482 | 24.44° C | 75% | 1102.1 hPa | 0 mm | - | 0 W/m² | - |
| 1787449177 | 24.44° C | 76% | 1102.1 hPa | 0 mm | - | 0 W/m² | - |
| 1787448876 | 24.44° C | 76% | 1102.1 hPa | 0 mm | - | 0 W/m² | - |
* Rain latest hour (hover to see other rain measurements)
** Current wind speed in m/s (hover to see current wind gust speed)